Time;durP1;ratioP1;P1;durP2;ratioP2;P2;SDS_P1;SDS_P2;PMS_P1;PMS_P2;Temp;Humidity;BMP_temperature;BMP_pressure;BME280_temperature;BME280_humidity;BME280_pressure;Samples;Min_cycle;Max_cycle;Signal;HPM_P1;HPM_P2
2022/04/22 00:00:39;;;;;;;;;11.00;9.75;;;;;;;;5019438;28;10148;-74
2022/04/22 00:03:07;;;;;;;;;11.00;11.00;;;;;;;;5022216;28;10114;-74
2022/04/22 00:05:35;;;;;;;;;11.00;11.00;;;;;;;;5022097;28;10031;-74
2022/04/22 00:08:02;;;;;;;;;13.25;12.00;;;;;;;;5022437;28;10269;-74
2022/04/22 00:10:30;;;;;;;;;14.00;11.00;;;;;;;;5021607;28;10192;-73
2022/04/22 00:12:57;;;;;;;;;13.75;13.75;;;;;;;;5017292;28;10023;-73
2022/04/22 00:15:26;;;;;;;;;11.00;11.00;;;;;;;;5024244;28;10247;-74
2022/04/22 00:17:53;;;;;;;;;16.50;12.50;;;;;;;;5029146;28;10870;-73
2022/04/22 00:20:20;;;;;;;;;9.00;9.00;;;;;;;;5024343;28;10246;-72
2022/04/22 00:22:48;;;;;;;;;14.00;12.25;;;;;;;;5022299;28;10231;-72
2022/04/22 00:25:15;;;;;;;;;14.00;13.00;;;;;;;;5022366;28;10414;-73
2022/04/22 00:27:43;;;;;;;;;12.50;12.00;;;;;;;;5022684;28;10482;-73
2022/04/22 00:30:12;;;;;;;;;13.75;13.75;;;;;;;;5018740;28;10347;-74
2022/04/22 00:32:41;;;;;;;;;11.50;11.50;;;;;;;;4995834;28;10253;-73
2022/04/22 00:35:09;;;;;;;;;15.75;15.75;;;;;;;;5020278;28;10205;-73
2022/04/22 00:37:36;;;;;;;;;14.75;11.50;;;;;;;;5020705;28;10358;-74
2022/04/22 00:40:05;;;;;;;;;10.00;10.00;;;;;;;;5015874;28;10305;-74
2022/04/22 00:42:32;;;;;;;;;13.00;11.00;;;;;;;;5014306;28;10176;-74
2022/04/22 00:44:59;;;;;;;;;17.75;15.00;;;;;;;;5023366;28;10367;-74
2022/04/22 00:47:27;;;;;;;;;17.75;15.75;;;;;;;;5014738;28;10245;-74
2022/04/22 00:49:56;;;;;;;;;16.75;14.00;;;;;;;;5020394;28;10422;-74
2022/04/22 00:52:24;;;;;;;;;12.50;10.75;;;;;;;;5025903;28;11104;-74
2022/04/22 00:54:51;;;;;;;;;12.00;12.00;;;;;;;;5024211;28;10234;-73
2022/04/22 00:57:19;;;;;;;;;8.00;8.00;;;;;;;;5022516;28;10426;-74
2022/04/22 00:59:47;;;;;;;;;15.50;11.75;;;;;;;;5021410;28;10431;-74
2022/04/22 01:02:14;;;;;;;;;8.75;8.75;;;;;;;;5019332;28;10347;-73
2022/04/22 01:10:14;;;;;;;;;15.00;13.75;;;;;;;;5012622;28;10959;-74
2022/04/22 01:12:41;;;;;;;;;13.50;11.25;;;;;;;;5011523;28;10323;-74
2022/04/22 01:15:09;;;;;;;;;13.50;13.50;;;;;;;;5020130;28;11134;-74
2022/04/22 01:17:37;;;;;;;;;14.00;14.00;;;;;;;;5024093;28;10378;-74
2022/04/22 01:20:05;;;;;;;;;13.50;13.50;;;;;;;;5022625;28;10338;-74
2022/04/22 01:22:34;;;;;;;;;11.25;11.25;;;;;;;;5018946;28;10520;-74
2022/04/22 01:25:02;;;;;;;;;14.25;13.50;;;;;;;;5021615;28;10436;-73
2022/04/22 01:27:30;;;;;;;;;13.75;11.25;;;;;;;;5024824;28;10398;-74
2022/04/22 01:29:58;;;;;;;;;19.00;15.00;;;;;;;;5017720;28;10503;-74
2022/04/22 01:32:27;;;;;;;;;16.00;16.00;;;;;;;;5021239;28;10432;-74
2022/04/22 01:34:55;;;;;;;;;14.25;13.75;;;;;;;;5018500;28;10723;-74
2022/04/22 01:37:23;;;;;;;;;11.75;11.75;;;;;;;;5020682;28;11414;-74
2022/04/22 01:39:51;;;;;;;;;20.75;15.00;;;;;;;;5019110;28;10621;-73
2022/04/22 01:42:19;;;;;;;;;20.00;14.00;;;;;;;;5025185;28;10798;-73
2022/04/22 01:44:47;;;;;;;;;17.50;13.50;;;;;;;;5022187;28;10803;-74
2022/04/22 01:47:14;;;;;;;;;13.25;13.25;;;;;;;;5019150;28;10740;-74
2022/04/22 01:49:42;;;;;;;;;9.25;9.25;;;;;;;;5021475;28;10661;-72
2022/04/22 01:52:09;;;;;;;;;16.75;14.25;;;;;;;;5021696;28;10817;-74
2022/04/22 01:54:37;;;;;;;;;15.25;12.50;;;;;;;;5021945;28;10735;-73
2022/04/22 01:57:06;;;;;;;;;17.75;15.00;;;;;;;;5021231;28;10703;-74
2022/04/22 01:59:34;;;;;;;;;15.75;14.00;;;;;;;;5029908;28;10746;-74
2022/04/22 02:02:01;;;;;;;;;15.25;15.25;;;;;;;;5016666;28;10708;-74
2022/04/22 02:04:28;;;;;;;;;14.25;10.00;;;;;;;;5022304;28;10682;-74
2022/04/22 02:06:56;;;;;;;;;15.25;15.25;;;;;;;;5018054;28;10916;-74
2022/04/22 02:09:23;;;;;;;;;12.50;12.00;;;;;;;;5021750;28;10879;-74
2022/04/22 02:11:50;;;;;;;;;17.75;17.75;;;;;;;;5021082;28;11030;-74
2022/04/22 02:14:19;;;;;;;;;17.00;14.25;;;;;;;;4997720;28;11047;-74
2022/04/22 02:16:46;;;;;;;;;15.00;11.50;;;;;;;;5025134;28;10981;-74
2022/04/22 02:19:14;;;;;;;;;14.75;14.75;;;;;;;;5020071;28;10908;-74
2022/04/22 02:21:42;;;;;;;;;15.75;15.75;;;;;;;;5020617;28;10905;-74
2022/04/22 02:24:09;;;;;;;;;18.25;14.25;;;;;;;;5000640;28;11707;-74
2022/04/22 02:29:19;;;;;;;;;19.25;15.50;;;;;;;;5018678;28;11029;-74
2022/04/22 02:31:46;;;;;;;;;17.00;17.00;;;;;;;;5019756;28;10959;-74
2022/04/22 02:34:14;;;;;;;;;17.00;17.00;;;;;;;;5022372;28;11109;-73
2022/04/22 02:36:42;;;;;;;;;16.50;16.50;;;;;;;;5018570;28;11139;-74
2022/04/22 02:39:10;;;;;;;;;14.00;14.00;;;;;;;;5017622;28;11891;-74
2022/04/22 02:47:08;;;;;;;;;18.25;16.50;;;;;;;;5021730;28;11135;-72
2022/04/22 02:49:35;;;;;;;;;17.50;17.50;;;;;;;;5021630;28;11225;-74
2022/04/22 02:52:03;;;;;;;;;18.00;17.00;;;;;;;;5022578;28;11220;-74
2022/04/22 02:54:31;;;;;;;;;18.00;15.50;;;;;;;;5013994;28;11031;-74
2022/04/22 02:56:58;;;;;;;;;19.00;17.00;;;;;;;;5003120;28;11180;-74
2022/04/22 02:59:28;;;;;;;;;15.75;13.75;;;;;;;;5013377;28;11860;-73
2022/04/22 03:01:56;;;;;;;;;19.75;18.25;;;;;;;;5012457;28;11058;-73
2022/04/22 03:04:23;;;;;;;;;17.50;15.25;;;;;;;;5020370;28;11883;-75
2022/04/22 03:06:50;;;;;;;;;16.50;16.50;;;;;;;;5019840;28;11199;-74
2022/04/22 03:09:18;;;;;;;;;15.25;15.25;;;;;;;;5016454;28;11174;-73
2022/04/22 03:11:45;;;;;;;;;15.25;14.50;;;;;;;;5014849;28;11034;-73
2022/04/22 03:14:12;;;;;;;;;16.00;16.00;;;;;;;;5014142;28;11138;-74
2022/04/22 03:16:42;;;;;;;;;17.00;14.75;;;;;;;;5017951;28;11168;-73
2022/04/22 03:19:10;;;;;;;;;15.50;14.25;;;;;;;;5019677;28;11136;-75
2022/04/22 03:21:37;;;;;;;;;15.25;15.25;;;;;;;;5019905;28;11177;-74
2022/04/22 03:24:05;;;;;;;;;18.25;16.75;;;;;;;;5021022;28;11251;-74
2022/04/22 03:26:32;;;;;;;;;17.75;17.75;;;;;;;;5019428;28;11108;-73
2022/04/22 03:28:59;;;;;;;;;10.50;10.50;;;;;;;;5019044;28;11374;-74
2022/04/22 03:31:27;;;;;;;;;15.50;15.50;;;;;;;;5020430;28;11016;-73
2022/04/22 03:33:56;;;;;;;;;15.50;15.50;;;;;;;;5020663;28;11224;-74
2022/04/22 03:36:24;;;;;;;;;16.00;14.25;;;;;;;;5019243;28;11651;-74
2022/04/22 03:38:51;;;;;;;;;15.50;13.50;;;;;;;;5024344;28;11239;-73
2022/04/22 03:41:18;;;;;;;;;14.00;14.00;;;;;;;;5005765;28;11197;-73
2022/04/22 03:43:45;;;;;;;;;16.75;13.50;;;;;;;;5017346;28;11125;-75
2022/04/22 03:46:13;;;;;;;;;17.25;17.25;;;;;;;;5022219;28;11166;-74
2022/04/22 03:48:41;;;;;;;;;19.00;17.75;;;;;;;;5024869;28;11370;-74
2022/04/22 03:51:09;;;;;;;;;15.00;15.00;;;;;;;;5013323;28;11994;-74
2022/04/22 03:53:39;;;;;;;;;13.75;13.75;;;;;;;;5023389;28;11589;-74
2022/04/22 03:58:48;;;;;;;;;21.50;17.25;;;;;;;;5016666;28;12133;-73
2022/04/22 04:01:15;;;;;;;;;18.75;15.00;;;;;;;;4995461;28;12079;-74
2022/04/22 04:03:43;;;;;;;;;18.00;14.00;;;;;;;;5000706;28;11465;-75
2022/04/22 04:06:12;;;;;;;;;25.25;21.50;;;;;;;;5010737;28;11292;-74
2022/04/22 04:08:40;;;;;;;;;19.50;17.75;;;;;;;;5015929;28;11422;-75
2022/04/22 04:16:36;;;;;;;;;19.25;19.25;;;;;;;;5023337;28;11399;-74
2022/04/22 04:24:54;;;;;;;;;23.25;20.50;;;;;;;;4936342;28;11711;-74
2022/04/22 04:27:21;;;;;;;;;20.50;20.50;;;;;;;;4939552;28;11526;-74
2022/04/22 04:29:48;;;;;;;;;22.25;22.25;;;;;;;;4976813;28;11452;-73
2022/04/22 04:32:17;;;;;;;;;22.00;20.00;;;;;;;;5022313;28;11423;-72
2022/04/22 04:34:44;;;;;;;;;21.75;20.50;;;;;;;;5000941;28;12250;-74
2022/04/22 04:37:13;;;;;;;;;22.50;20.75;;;;;;;;5022171;28;11562;-74
2022/04/22 04:39:41;;;;;;;;;17.00;17.00;;;;;;;;5016454;28;12276;-73
2022/04/22 04:42:09;;;;;;;;;15.50;15.25;;;;;;;;5022823;28;11436;-73
2022/04/22 04:44:37;;;;;;;;;22.00;19.00;;;;;;;;5022583;28;11443;-74
2022/04/22 04:47:05;;;;;;;;;18.25;16.25;;;;;;;;5022301;28;11583;-74
2022/04/22 04:49:32;;;;;;;;;19.25;16.75;;;;;;;;5022228;28;11462;-74
2022/04/22 04:52:00;;;;;;;;;21.25;20.50;;;;;;;;5022398;28;11465;-74
2022/04/22 04:54:28;;;;;;;;;15.75;13.25;;;;;;;;5022485;28;11523;-74
2022/04/22 04:56:55;;;;;;;;;16.25;16.25;;;;;;;;5023975;28;11473;-74
2022/04/22 04:59:23;;;;;;;;;14.50;12.00;;;;;;;;5013190;28;11487;-74
2022/04/22 05:01:50;;;;;;;;;22.75;21.25;;;;;;;;5022515;28;12250;-73
2022/04/22 05:04:17;;;;;;;;;19.50;19.25;;;;;;;;5022154;28;11633;-74
2022/04/22 05:06:44;;;;;;;;;21.75;21.75;;;;;;;;5028593;28;11476;-74
2022/04/22 05:09:11;;;;;;;;;19.75;19.75;;;;;;;;5015738;28;11457;-74
2022/04/22 05:11:40;;;;;;;;;22.50;18.75;;;;;;;;5010074;28;11465;-74
2022/04/22 05:14:08;;;;;;;;;15.75;15.25;;;;;;;;5023034;28;11552;-73
2022/04/22 05:16:35;;;;;;;;;18.75;17.00;;;;;;;;5021339;28;11485;-74
2022/04/22 05:19:02;;;;;;;;;16.50;16.00;;;;;;;;5011472;28;12294;-73
2022/04/22 05:21:30;;;;;;;;;18.75;18.75;;;;;;;;5017979;28;11472;-76
2022/04/22 05:23:57;;;;;;;;;21.75;21.75;;;;;;;;5029690;28;11495;-78
2022/04/22 05:26:24;;;;;;;;;20.00;18.00;;;;;;;;5022656;28;11511;-79
2022/04/22 05:28:53;;;;;;;;;17.00;17.00;;;;;;;;5020889;28;11471;-78
2022/04/22 05:34:05;;;;;;;;;21.00;19.00;;;;;;;;5022762;28;11443;-78
2022/04/22 05:36:32;;;;;;;;;17.75;17.75;;;;;;;;5019148;28;11473;-80
2022/04/22 05:39:00;;;;;;;;;21.25;17.25;;;;;;;;5022920;28;12165;-80
2022/04/22 05:41:27;;;;;;;;;18.00;18.00;;;;;;;;5009739;28;11480;-80
2022/04/22 05:43:56;;;;;;;;;15.25;15.25;;;;;;;;4998985;28;12696;-79
2022/04/22 05:46:24;;;;;;;;;20.50;18.00;;;;;;;;5021737;28;11458;-78
2022/04/22 05:48:51;;;;;;;;;21.00;17.25;;;;;;;;5018326;28;11452;-80
2022/04/22 05:51:18;;;;;;;;;17.75;17.00;;;;;;;;5021519;28;11433;-78
2022/04/22 05:53:48;;;;;;;;;20.75;16.25;;;;;;;;5022739;28;11379;-76
2022/04/22 05:56:15;;;;;;;;;16.25;16.00;;;;;;;;5021145;28;11450;-80
2022/04/22 05:58:43;;;;;;;;;14.25;14.25;;;;;;;;5005366;28;11431;-76
2022/04/22 06:01:11;;;;;;;;;18.50;17.50;;;;;;;;5021270;28;11801;-78
2022/04/22 06:03:39;;;;;;;;;15.00;15.00;;;;;;;;5017486;28;11288;-78
2022/04/22 06:06:06;;;;;;;;;19.25;18.00;;;;;;;;5004316;28;11108;-79
2022/04/22 06:11:18;;;;;;;;;17.75;13.75;;;;;;;;5007606;28;10981;-81
2022/04/22 06:13:47;;;;;;;;;13.00;13.00;;;;;;;;5017893;28;10954;-81
2022/04/22 06:16:15;;;;;;;;;15.25;15.25;;;;;;;;5019735;28;11020;-77
2022/04/22 06:18:43;;;;;;;;;17.75;17.75;;;;;;;;5024630;28;10885;-77
2022/04/22 06:21:11;;;;;;;;;17.75;13.75;;;;;;;;5022283;28;11024;-82
2022/04/22 06:23:38;;;;;;;;;14.00;14.00;;;;;;;;5018565;28;11773;-80
2022/04/22 06:26:06;;;;;;;;;13.75;13.00;;;;;;;;5016486;28;10918;-77
2022/04/22 06:28:34;;;;;;;;;17.25;13.25;;;;;;;;5019856;28;10889;-78
2022/04/22 06:31:02;;;;;;;;;17.50;14.50;;;;;;;;5025283;28;10842;-77
2022/04/22 06:33:31;;;;;;;;;14.00;14.00;;;;;;;;5020078;28;10795;-75
2022/04/22 06:36:03;;;;;;;;;18.50;14.00;;;;;;;;5014782;28;10816;-76
2022/04/22 06:38:31;;;;;;;;;15.50;14.25;;;;;;;;5019612;28;10756;-76
2022/04/22 06:46:29;;;;;;;;;12.25;12.25;;;;;;;;5020507;28;10567;-76
2022/04/22 06:48:58;;;;;;;;;18.00;15.25;;;;;;;;5018598;28;10432;-74
2022/04/22 06:51:26;;;;;;;;;14.50;14.50;;;;;;;;5011375;28;10541;-74
2022/04/22 06:53:54;;;;;;;;;9.00;9.00;;;;;;;;5017211;28;10575;-75
2022/04/22 06:56:26;;;;;;;;;14.00;14.00;;;;;;;;5015291;28;10400;-75
2022/04/22 06:58:53;;;;;;;;;19.50;16.75;;;;;;;;5018084;28;11351;-75
2022/04/22 07:01:22;;;;;;;;;15.00;15.00;;;;;;;;5014111;28;10582;-75
2022/04/22 07:03:49;;;;;;;;;13.75;13.75;;;;;;;;5017511;28;11126;-76
2022/04/22 07:06:18;;;;;;;;;14.75;13.00;;;;;;;;5021171;28;10362;-76
2022/04/22 07:08:46;;;;;;;;;14.50;13.25;;;;;;;;5001567;28;10516;-75
2022/04/22 07:11:17;;;;;;;;;16.50;14.00;;;;;;;;4998385;28;10522;-75
2022/04/22 07:13:45;;;;;;;;;15.50;14.00;;;;;;;;5022973;28;10511;-76
2022/04/22 07:16:14;;;;;;;;;16.25;15.00;;;;;;;;5022005;28;10402;-76
2022/04/22 07:18:42;;;;;;;;;16.75;16.75;;;;;;;;5028400;28;10518;-76
2022/04/22 07:21:10;;;;;;;;;16.50;15.50;;;;;;;;5024610;28;10341;-77
2022/04/22 07:23:41;;;;;;;;;13.25;13.25;;;;;;;;5023818;28;11239;-80
2022/04/22 07:26:09;;;;;;;;;14.75;14.00;;;;;;;;5025231;28;10375;-79
2022/04/22 07:28:38;;;;;;;;;18.75;17.00;;;;;;;;5020782;28;10323;-80
2022/04/22 07:31:09;;;;;;;;;19.00;14.50;;;;;;;;5021684;28;11072;-80
2022/04/22 07:33:36;;;;;;;;;15.50;14.50;;;;;;;;5025750;28;10346;-78
2022/04/22 07:36:04;;;;;;;;;18.75;14.50;;;;;;;;5021756;28;10253;-80
2022/04/22 07:38:32;;;;;;;;;18.25;18.25;;;;;;;;5021485;28;10351;-79
2022/04/22 07:41:01;;;;;;;;;16.50;15.50;;;;;;;;5003385;28;10901;-79
2022/04/22 07:48:59;;;;;;;;;18.75;18.50;;;;;;;;5016122;28;10004;-78
2022/04/22 07:51:27;;;;;;;;;16.75;12.50;;;;;;;;5018758;28;10180;-77
2022/04/22 07:53:55;;;;;;;;;10.50;10.50;;;;;;;;5018219;28;10103;-80
2022/04/22 07:56:23;;;;;;;;;16.75;15.25;;;;;;;;5013673;28;9978;-80
2022/04/22 07:58:51;;;;;;;;;10.00;10.00;;;;;;;;5023270;28;11328;-80
2022/04/22 08:01:18;;;;;;;;;10.25;9.75;;;;;;;;5018962;28;9658;-80
2022/04/22 08:03:46;;;;;;;;;11.50;10.00;;;;;;;;5015000;28;9622;-82
2022/04/22 08:06:13;;;;;;;;;14.25;12.00;;;;;;;;5018192;28;9645;-79
2022/04/22 08:08:41;;;;;;;;;12.25;12.25;;;;;;;;5014596;28;9646;-79
2022/04/22 08:11:08;;;;;;;;;11.50;11.50;;;;;;;;5020224;28;9671;-80
2022/04/22 08:13:37;;;;;;;;;11.75;10.75;;;;;;;;5002469;28;9655;-79
2022/04/22 08:16:05;;;;;;;;;11.00;11.00;;;;;;;;5019627;28;9611;-82
2022/04/22 08:18:33;;;;;;;;;14.00;14.00;;;;;;;;5018193;28;9404;-83
2022/04/22 08:21:00;;;;;;;;;13.00;12.67;;;;;;;;5024188;28;9484;-83
2022/04/22 08:23:27;;;;;;;;;12.67;12.67;;;;;;;;5018252;28;9253;-82
2022/04/22 08:25:54;;;;;;;;;14.33;12.33;;;;;;;;5021069;28;9338;-80
2022/04/22 08:28:22;;;;;;;;;12.00;12.00;;;;;;;;5019650;28;9509;-80
2022/04/22 08:30:51;;;;;;;;;12.33;10.67;;;;;;;;5002055;28;9882;-80
2022/04/22 08:33:18;;;;;;;;;10.00;10.00;;;;;;;;5018376;28;9041;-80
2022/04/22 08:35:45;;;;;;;;;12.75;12.75;;;;;;;;5021816;28;8866;-80
2022/04/22 08:38:13;;;;;;;;;12.25;12.25;;;;;;;;5018773;28;8889;-80
2022/04/22 08:40:40;;;;;;;;;12.50;12.50;;;;;;;;5015156;28;8900;-81
2022/04/22 08:43:07;;;;;;;;;14.50;13.75;;;;;;;;5018603;28;8968;-82
2022/04/22 08:45:35;;;;;;;;;13.25;13.25;;;;;;;;5018195;28;8905;-80
2022/04/22 08:50:52;;;;;;;;;13.75;12.00;;;;;;;;5013545;28;8840;-80
2022/04/22 08:53:24;;;;;;;;;12.00;12.00;;;;;;;;5021622;28;9588;-80
2022/04/22 08:55:56;;;;;;;;;15.75;14.25;;;;;;;;5016308;28;8865;-82
2022/04/22 08:58:25;;;;;;;;;9.00;9.00;;;;;;;;5004984;28;8862;-80
2022/04/22 09:00:54;;;;;;;;;13.00;11.75;;;;;;;;5019443;28;8833;-80
2022/04/22 09:03:23;;;;;;;;;10.50;10.50;;;;;;;;5015281;28;8866;-80
2022/04/22 09:05:50;;;;;;;;;13.50;11.75;;;;;;;;4995138;28;8963;-82
2022/04/22 09:08:20;;;;;;;;;13.25;10.75;;;;;;;;5020299;28;8872;-81
2022/04/22 09:10:53;;;;;;;;;9.75;9.75;;;;;;;;5021867;28;8866;-82
2022/04/22 09:13:30;;;;;;;;;12.25;10.00;;;;;;;;5013713;28;8855;-81
2022/04/22 09:15:58;;;;;;;;;11.25;9.25;;;;;;;;5018328;28;9017;-83
2022/04/22 09:18:27;;;;;;;;;8.50;8.00;;;;;;;;5006340;28;8858;-80
2022/04/22 09:21:02;;;;;;;;;10.50;9.25;;;;;;;;5024724;28;8860;-79
2022/04/22 09:23:34;;;;;;;;;11.50;11.25;;;;;;;;5018522;28;9552;-80
2022/04/22 09:26:03;;;;;;;;;11.50;10.25;;;;;;;;5010118;28;8846;-78
2022/04/22 09:28:30;;;;;;;;;12.25;12.25;;;;;;;;5017565;28;8976;-77
2022/04/22 09:30:59;;;;;;;;;11.50;9.75;;;;;;;;5020715;28;8775;-79
2022/04/22 09:33:36;;;;;;;;;11.00;10.50;;;;;;;;5008380;28;8942;-78
2022/04/22 09:44:25;;;;;;;;;10.00;7.00;;;;;;;;5012992;28;8869;-83
2022/04/22 09:47:11;;;;;;;;;7.50;7.50;;;;;;;;4987859;28;8897;-78
2022/04/22 09:49:43;;;;;;;;;7.25;7.25;;;;;;;;5019767;28;8897;-77
2022/04/22 09:52:10;;;;;;;;;8.25;8.25;;;;;;;;5018279;28;8924;-79
2022/04/22 09:54:39;;;;;;;;;9.50;9.50;;;;;;;;5023833;28;8862;-79
2022/04/22 09:57:07;;;;;;;;;7.00;7.00;;;;;;;;5024426;28;8845;-78
2022/04/22 09:59:35;;;;;;;;;8.75;7.75;;;;;;;;5017676;28;9689;-78
2022/04/22 10:02:02;;;;;;;;;8.25;8.25;;;;;;;;5016104;28;8813;-77
2022/04/22 10:04:31;;;;;;;;;9.75;8.00;;;;;;;;5019899;28;8897;-80
2022/04/22 10:07:02;;;;;;;;;6.00;6.00;;;;;;;;4999636;28;8874;-80
2022/04/22 10:09:30;;;;;;;;;10.75;8.25;;;;;;;;5018865;28;8882;-80
2022/04/22 10:11:59;;;;;;;;;10.25;10.25;;;;;;;;4999466;28;9001;-80
2022/04/22 10:14:36;;;;;;;;;7.50;7.00;;;;;;;;5014794;28;8889;-78
2022/04/22 10:17:05;;;;;;;;;4.50;4.50;;;;;;;;5008867;28;8846;-82
2022/04/22 10:19:34;;;;;;;;;5.00;5.00;;;;;;;;5024511;28;8870;-79
2022/04/22 10:22:07;;;;;;;;;6.00;6.00;;;;;;;;5021359;28;8988;-77
2022/04/22 10:24:34;;;;;;;;;4.20;4.00;;;;;;;;5022850;28;8862;-78
2022/04/22 10:27:03;;;;;;;;;6.40;4.40;;;;;;;;5022141;28;8903;-77
2022/04/22 10:29:31;;;;;;;;;4.60;4.60;;;;;;;;5023474;28;8866;-79
2022/04/22 10:31:58;;;;;;;;;5.00;5.00;;;;;;;;5022315;28;8798;-79
2022/04/22 10:34:39;;;;;;;;;7.00;5.20;;;;;;;;5021743;28;8874;-78
2022/04/22 10:37:16;;;;;;;;;5.00;5.00;;;;;;;;5014916;28;8870;-79
2022/04/22 10:39:43;;;;;;;;;5.20;5.20;;;;;;;;5009176;28;8878;-79
2022/04/22 10:42:15;;;;;;;;;4.00;4.00;;;;;;;;5018002;28;8891;-78
2022/04/22 10:47:39;;;;;;;;;4.20;4.20;;;;;;;;5026476;28;8850;-77
2022/04/22 10:50:32;;;;;;;;;3.40;3.40;;;;;;;;5001704;28;8890;-77
2022/04/22 10:53:03;;;;;;;;;7.00;5.00;;;;;;;;5026136;28;8870;-78
2022/04/22 10:55:31;;;;;;;;;4.40;4.40;;;;;;;;5022489;28;9020;-77
2022/04/22 10:58:34;;;;;;;;;5.60;5.60;;;;;;;;5027116;28;8944;-76
2022/04/22 11:01:01;;;;;;;;;3.00;3.00;;;;;;;;5024913;28;8818;-77
2022/04/22 11:03:34;;;;;;;;;4.80;4.80;;;;;;;;5015965;28;8876;-77
2022/04/22 11:06:05;;;;;;;;;3.40;3.40;;;;;;;;5015340;28;8846;-77
2022/04/22 11:08:38;;;;;;;;;3.20;3.20;;;;;;;;5025603;28;8870;-77
2022/04/22 11:11:15;;;;;;;;;3.80;3.80;;;;;;;;5026403;28;8897;-77
2022/04/22 11:13:49;;;;;;;;;2.60;2.60;;;;;;;;5007782;28;8866;-77
2022/04/22 11:16:24;;;;;;;;;3.00;3.00;;;;;;;;5026548;28;8885;-76
2022/04/22 11:19:09;;;;;;;;;4.00;3.00;;;;;;;;5025621;28;8890;-77
2022/04/22 11:21:50;;;;;;;;;2.60;2.60;;;;;;;;5029519;28;8893;-78
2022/04/22 11:24:21;;;;;;;;;3.60;3.60;;;;;;;;5026344;28;8882;-78
2022/04/22 11:26:49;;;;;;;;;3.00;3.00;;;;;;;;5024918;28;8967;-78
2022/04/22 11:29:17;;;;;;;;;2.20;2.20;;;;;;;;5026181;28;8862;-76
2022/04/22 11:31:58;;;;;;;;;3.00;3.00;;;;;;;;5024078;28;8823;-81
2022/04/22 11:34:59;;;;;;;;;4.00;4.00;;;;;;;;5007611;28;8854;-77
2022/04/22 11:37:26;;;;;;;;;3.00;3.00;;;;;;;;5016874;28;8915;-77
2022/04/22 11:39:55;;;;;;;;;3.00;3.00;;;;;;;;5006861;28;8876;-78
2022/04/22 11:42:22;;;;;;;;;4.40;3.00;;;;;;;;5011499;28;8979;-78
2022/04/22 11:45:03;;;;;;;;;2.00;2.00;;;;;;;;5023517;28;8851;-79
2022/04/22 11:47:30;;;;;;;;;2.80;2.80;;;;;;;;5025345;28;8861;-77
2022/04/22 11:49:58;;;;;;;;;2.40;2.40;;;;;;;;5017880;28;8990;-78
2022/04/22 11:52:29;;;;;;;;;3.00;3.00;;;;;;;;5005088;28;9670;-77
2022/04/22 11:55:01;;;;;;;;;3.40;3.40;;;;;;;;5022782;28;8874;-77
2022/04/22 11:57:33;;;;;;;;;1.80;1.80;;;;;;;;5024924;28;8947;-77
2022/04/22 12:05:34;;;;;;;;;3.60;2.00;;;;;;;;5024493;28;8850;-78
2022/04/22 12:08:05;;;;;;;;;3.20;3.20;;;;;;;;5008090;28;8909;-78
2022/04/22 12:10:35;;;;;;;;;2.80;2.80;;;;;;;;5021738;28;8886;-79
2022/04/22 12:13:04;;;;;;;;;3.00;3.00;;;;;;;;5034322;28;8855;-82
2022/04/22 12:15:32;;;;;;;;;2.00;2.00;;;;;;;;5025186;28;8872;-77
2022/04/22 12:18:00;;;;;;;;;3.20;3.20;;;;;;;;5024478;28;8858;-78
2022/04/22 12:20:27;;;;;;;;;1.80;1.80;;;;;;;;5023965;28;8898;-79
2022/04/22 12:22:56;;;;;;;;;1.80;1.80;;;;;;;;5023794;28;9496;-78
2022/04/22 12:25:23;;;;;;;;;1.40;1.40;;;;;;;;5025304;28;8862;-78
2022/04/22 12:28:20;;;;;;;;;2.60;2.20;;;;;;;;5022085;28;8871;-78
2022/04/22 12:30:48;;;;;;;;;4.20;4.20;;;;;;;;5023723;28;8823;-78
2022/04/22 12:33:18;;;;;;;;;3.00;3.00;;;;;;;;5024766;28;8862;-78
2022/04/22 12:35:48;;;;;;;;;4.60;3.20;;;;;;;;5024112;28;8870;-77
2022/04/22 12:38:16;;;;;;;;;2.80;2.80;;;;;;;;5025074;28;8878;-78
2022/04/22 12:40:48;;;;;;;;;2.60;2.60;;;;;;;;5023283;28;8874;-78
2022/04/22 12:43:28;;;;;;;;;2.00;2.00;;;;;;;;5024561;28;8976;-80
2022/04/22 12:54:17;;;;;;;;;2.00;2.00;;;;;;;;5024341;28;8968;-78
2022/04/22 12:56:54;;;;;;;;;3.60;3.60;;;;;;;;5023896;28;8854;-78
2022/04/22 12:59:23;;;;;;;;;3.80;3.80;;;;;;;;5009673;28;8911;-77
2022/04/22 13:01:50;;;;;;;;;2.80;2.80;;;;;;;;4999489;28;8800;-78
2022/04/22 13:04:22;;;;;;;;;3.40;3.40;;;;;;;;5029024;28;8905;-78
2022/04/22 13:06:50;;;;;;;;;2.60;2.60;;;;;;;;5022176;28;8866;-78
2022/04/22 13:09:18;;;;;;;;;3.00;3.00;;;;;;;;5024278;28;8898;-79
2022/04/22 13:11:46;;;;;;;;;2.20;2.20;;;;;;;;5023346;28;8884;-77
2022/04/22 13:14:15;;;;;;;;;3.40;2.60;;;;;;;;5023473;28;8904;-78
2022/04/22 13:16:43;;;;;;;;;2.40;1.00;;;;;;;;5024399;28;8885;-77
2022/04/22 13:19:12;;;;;;;;;5.40;4.00;;;;;;;;5022768;28;8889;-78
2022/04/22 13:21:40;;;;;;;;;3.00;3.00;;;;;;;;5023629;28;8878;-79
2022/04/22 13:24:08;;;;;;;;;2.00;2.00;;;;;;;;5023787;28;8861;-78
2022/04/22 13:26:37;;;;;;;;;5.40;3.00;;;;;;;;5024087;28;8862;-78
2022/04/22 13:29:05;;;;;;;;;2.20;2.20;;;;;;;;5023670;28;8908;-78
2022/04/22 13:31:33;;;;;;;;;1.80;1.80;;;;;;;;5018382;28;8819;-78
2022/04/22 13:34:03;;;;;;;;;4.20;3.40;;;;;;;;5024319;28;8874;-79
2022/04/22 13:36:31;;;;;;;;;5.40;4.00;;;;;;;;5029286;28;8995;-78
2022/04/22 13:38:58;;;;;;;;;2.40;2.40;;;;;;;;5023789;28;8997;-79
2022/04/22 13:41:26;;;;;;;;;2.80;2.80;;;;;;;;5023196;28;8883;-77
2022/04/22 13:43:53;;;;;;;;;4.20;3.00;;;;;;;;5006316;28;8886;-78
2022/04/22 13:54:35;;;;;;;;;4.80;3.00;;;;;;;;5007277;28;8873;-78
2022/04/22 13:57:02;;;;;;;;;3.00;3.00;;;;;;;;5023606;28;8909;-78
2022/04/22 13:59:30;;;;;;;;;4.00;4.00;;;;;;;;5022798;28;8878;-78
2022/04/22 14:01:57;;;;;;;;;4.00;4.00;;;;;;;;4986006;28;8805;-78
2022/04/22 14:04:26;;;;;;;;;3.40;3.40;;;;;;;;5015831;28;8861;-78
2022/04/22 14:06:53;;;;;;;;;3.20;3.20;;;;;;;;5021940;28;8941;-78
2022/04/22 14:09:21;;;;;;;;;3.00;3.00;;;;;;;;5023320;28;8999;-77
2022/04/22 14:11:48;;;;;;;;;5.20;5.20;;;;;;;;5022364;28;8886;-80
2022/04/22 14:14:15;;;;;;;;;3.40;3.40;;;;;;;;5023289;28;8862;-78
2022/04/22 14:16:43;;;;;;;;;4.00;4.00;;;;;;;;5022335;28;8874;-79
2022/04/22 14:19:10;;;;;;;;;3.80;3.80;;;;;;;;5016937;28;8900;-79
2022/04/22 14:21:39;;;;;;;;;3.60;3.60;;;;;;;;5022726;28;8965;-78
2022/04/22 14:24:07;;;;;;;;;4.80;4.80;;;;;;;;5022576;28;8866;-78
2022/04/22 14:26:34;;;;;;;;;4.00;4.00;;;;;;;;5011885;28;8916;-78
2022/04/22 14:29:02;;;;;;;;;5.20;4.00;;;;;;;;5027300;28;8915;-77
2022/04/22 14:31:30;;;;;;;;;4.60;4.60;;;;;;;;5022067;28;8814;-77
2022/04/22 14:33:57;;;;;;;;;4.80;4.80;;;;;;;;5021751;28;8928;-78
2022/04/22 14:36:24;;;;;;;;;3.80;3.80;;;;;;;;5022966;28;8932;-80
2022/04/22 14:38:54;;;;;;;;;5.20;4.00;;;;;;;;5022777;28;8928;-78
2022/04/22 14:41:21;;;;;;;;;5.20;5.20;;;;;;;;5020574;28;8901;-80
2022/04/22 14:43:48;;;;;;;;;5.80;5.00;;;;;;;;5021860;28;8847;-78
2022/04/22 14:46:16;;;;;;;;;3.20;3.20;;;;;;;;5017753;28;8916;-79
2022/04/22 14:48:44;;;;;;;;;5.80;4.00;;;;;;;;5012892;28;8866;-78
2022/04/22 14:51:11;;;;;;;;;6.20;6.20;;;;;;;;5018381;28;8878;-77
2022/04/22 14:53:38;;;;;;;;;4.00;4.00;;;;;;;;5023368;28;9662;-79
2022/04/22 14:56:07;;;;;;;;;5.00;5.00;;;;;;;;5021895;28;8870;-78
2022/04/22 14:58:34;;;;;;;;;4.40;4.40;;;;;;;;5005419;28;9017;-80
2022/04/22 15:01:02;;;;;;;;;4.80;4.80;;;;;;;;5013929;28;8798;-79
2022/04/22 15:03:29;;;;;;;;;3.80;3.80;;;;;;;;5022019;28;8870;-77
2022/04/22 15:05:59;;;;;;;;;5.00;5.00;;;;;;;;5022344;28;9644;-78
2022/04/22 15:08:27;;;;;;;;;5.20;5.20;;;;;;;;5021125;28;8862;-78
2022/04/22 15:10:54;;;;;;;;;5.20;5.20;;;;;;;;5012453;28;9715;-79
2022/04/22 15:13:23;;;;;;;;;6.60;5.40;;;;;;;;5019766;28;8854;-78
2022/04/22 15:15:51;;;;;;;;;3.80;3.80;;;;;;;;5021159;28;8869;-79
2022/04/22 15:26:35;;;;;;;;;4.00;4.00;;;;;;;;5007045;28;8795;-78
2022/04/22 15:29:05;;;;;;;;;4.20;3.80;;;;;;;;5021998;28;8858;-79
2022/04/22 15:31:33;;;;;;;;;3.00;3.00;;;;;;;;5024944;28;8794;-78
2022/04/22 15:34:00;;;;;;;;;5.20;5.20;;;;;;;;5025091;28;8858;-79
2022/04/22 15:36:28;;;;;;;;;5.80;5.40;;;;;;;;5035506;28;9701;-80
2022/04/22 15:38:56;;;;;;;;;4.00;4.00;;;;;;;;5015641;28;9024;-78
2022/04/22 15:41:29;;;;;;;;;5.00;5.00;;;;;;;;5026010;28;8906;-79
2022/04/22 15:43:57;;;;;;;;;7.00;7.00;;;;;;;;5025517;28;8846;-77
2022/04/22 15:46:26;;;;;;;;;6.00;5.60;;;;;;;;5024510;28;8907;-81
2022/04/22 15:48:54;;;;;;;;;6.60;6.60;;;;;;;;5026177;28;8892;-77
2022/04/22 15:51:22;;;;;;;;;6.00;6.00;;;;;;;;5006586;28;8864;-77
2022/04/22 15:53:54;;;;;;;;;5.00;5.00;;;;;;;;5019293;28;8897;-77
2022/04/22 15:56:23;;;;;;;;;4.60;4.60;;;;;;;;5033854;28;8864;-78
2022/04/22 15:58:52;;;;;;;;;5.00;5.00;;;;;;;;5005933;28;8880;-78
2022/04/22 16:01:20;;;;;;;;;4.40;4.40;;;;;;;;5012857;28;8801;-76
2022/04/22 16:03:50;;;;;;;;;5.00;5.00;;;;;;;;5020085;28;8885;-80
2022/04/22 16:06:18;;;;;;;;;3.60;3.60;;;;;;;;5021555;28;8849;-76
2022/04/22 16:08:46;;;;;;;;;6.80;5.00;;;;;;;;5017948;28;8894;-80
2022/04/22 16:16:44;;;;;;;;;5.00;5.00;;;;;;;;4997809;28;9699;-79